sensor_id;sensor_type;location;lat;lon;timestamp;P1;durP1;ratioP1;P2;durP2;ratioP2
27983;SDS011;15317;50.360;8.726;2024-01-30T00:02:13;32.83;;;29.43;;
27983;SDS011;15317;50.360;8.726;2024-01-30T00:07:17;33.30;;;29.30;;
27983;SDS011;15317;50.360;8.726;2024-01-30T00:12:21;30.90;;;27.60;;
27983;SDS011;15317;50.360;8.726;2024-01-30T00:17:25;26.53;;;23.57;;
27983;SDS011;15317;50.360;8.726;2024-01-30T00:22:28;25.43;;;22.73;;
27983;SDS011;15317;50.360;8.726;2024-01-30T00:27:33;24.73;;;21.37;;
27983;SDS011;15317;50.360;8.726;2024-01-30T00:32:36;21.80;;;19.60;;
27983;SDS011;15317;50.360;8.726;2024-01-30T00:37:40;22.03;;;19.80;;
27983;SDS011;15317;50.360;8.726;2024-01-30T00:42:44;19.57;;;17.67;;
27983;SDS011;15317;50.360;8.726;2024-01-30T00:47:48;20.50;;;18.30;;
27983;SDS011;15317;50.360;8.726;2024-01-30T00:52:51;19.03;;;17.23;;
27983;SDS011;15317;50.360;8.726;2024-01-30T00:57:56;18.27;;;16.20;;
27983;SDS011;15317;50.360;8.726;2024-01-30T01:02:59;17.70;;;15.90;;
27983;SDS011;15317;50.360;8.726;2024-01-30T01:08:02;16.90;;;15.20;;
27983;SDS011;15317;50.360;8.726;2024-01-30T01:13:07;16.90;;;15.27;;
27983;SDS011;15317;50.360;8.726;2024-01-30T01:18:10;17.10;;;14.57;;
27983;SDS011;15317;50.360;8.726;2024-01-30T01:23:13;17.47;;;15.63;;
27983;SDS011;15317;50.360;8.726;2024-01-30T01:28:18;16.00;;;14.30;;
27983;SDS011;15317;50.360;8.726;2024-01-30T01:33:21;17.27;;;15.50;;
27983;SDS011;15317;50.360;8.726;2024-01-30T01:38:24;16.50;;;14.90;;
27983;SDS011;15317;50.360;8.726;2024-01-30T01:43:29;17.13;;;15.43;;
27983;SDS011;15317;50.360;8.726;2024-01-30T01:48:32;18.27;;;16.30;;
27983;SDS011;15317;50.360;8.726;2024-01-30T01:53:36;18.30;;;15.30;;
27983;SDS011;15317;50.360;8.726;2024-01-30T01:58:41;17.63;;;15.83;;
27983;SDS011;15317;50.360;8.726;2024-01-30T02:03:45;18.00;;;16.20;;
27983;SDS011;15317;50.360;8.726;2024-01-30T02:08:48;18.77;;;16.87;;
27983;SDS011;15317;50.360;8.726;2024-01-30T02:13:53;17.33;;;15.63;;
27983;SDS011;15317;50.360;8.726;2024-01-30T02:18:56;17.03;;;15.23;;
27983;SDS011;15317;50.360;8.726;2024-01-30T02:24:00;18.03;;;15.90;;
27983;SDS011;15317;50.360;8.726;2024-01-30T02:29:05;18.30;;;16.40;;
27983;SDS011;15317;50.360;8.726;2024-01-30T02:34:08;18.63;;;16.73;;
27983;SDS011;15317;50.360;8.726;2024-01-30T02:39:13;19.30;;;16.70;;
27983;SDS011;15317;50.360;8.726;2024-01-30T02:44:17;19.20;;;17.23;;
27983;SDS011;15317;50.360;8.726;2024-01-30T02:49:21;18.43;;;16.50;;
27983;SDS011;15317;50.360;8.726;2024-01-30T02:54:25;19.33;;;16.77;;
27983;SDS011;15317;50.360;8.726;2024-01-30T02:59:29;18.40;;;16.40;;
27983;SDS011;15317;50.360;8.726;2024-01-30T03:04:35;17.13;;;15.37;;
27983;SDS011;15317;50.360;8.726;2024-01-30T03:09:40;18.67;;;16.37;;
27983;SDS011;15317;50.360;8.726;2024-01-30T03:14:44;17.37;;;15.60;;
27983;SDS011;15317;50.360;8.726;2024-01-30T03:19:47;18.77;;;16.87;;
27983;SDS011;15317;50.360;8.726;2024-01-30T03:24:51;21.23;;;18.93;;
27983;SDS011;15317;50.360;8.726;2024-01-30T03:29:55;22.77;;;20.23;;
27983;SDS011;15317;50.360;8.726;2024-01-30T03:34:58;22.43;;;20.03;;
27983;SDS011;15317;50.360;8.726;2024-01-30T03:40:03;21.77;;;19.57;;
27983;SDS011;15317;50.360;8.726;2024-01-30T03:45:07;21.90;;;19.17;;
27983;SDS011;15317;50.360;8.726;2024-01-30T03:50:11;22.37;;;20.07;;
27983;SDS011;15317;50.360;8.726;2024-01-30T03:55:15;21.50;;;19.27;;
27983;SDS011;15317;50.360;8.726;2024-01-30T04:00:19;21.60;;;19.17;;
27983;SDS011;15317;50.360;8.726;2024-01-30T04:05:22;22.63;;;20.30;;
27983;SDS011;15317;50.360;8.726;2024-01-30T04:10:26;21.97;;;19.63;;
27983;SDS011;15317;50.360;8.726;2024-01-30T04:15:30;21.00;;;18.50;;
27983;SDS011;15317;50.360;8.726;2024-01-30T04:20:34;21.93;;;19.37;;
27983;SDS011;15317;50.360;8.726;2024-01-30T04:25:39;21.40;;;19.20;;
27983;SDS011;15317;50.360;8.726;2024-01-30T04:30:42;23.77;;;20.70;;
27983;SDS011;15317;50.360;8.726;2024-01-30T04:35:45;22.23;;;19.87;;
27983;SDS011;15317;50.360;8.726;2024-01-30T04:40:49;22.13;;;19.63;;
27983;SDS011;15317;50.360;8.726;2024-01-30T04:45:52;23.30;;;20.77;;
27983;SDS011;15317;50.360;8.726;2024-01-30T04:50:56;21.30;;;19.10;;
27983;SDS011;15317;50.360;8.726;2024-01-30T04:56:00;23.97;;;21.47;;
27983;SDS011;15317;50.360;8.726;2024-01-30T05:01:03;24.07;;;21.53;;
27983;SDS011;15317;50.360;8.726;2024-01-30T05:06:07;24.47;;;20.73;;
27983;SDS011;15317;50.360;8.726;2024-01-30T05:11:11;25.53;;;22.40;;
27983;SDS011;15317;50.360;8.726;2024-01-30T05:16:14;25.33;;;22.60;;
27983;SDS011;15317;50.360;8.726;2024-01-30T05:21:18;26.13;;;23.40;;
27983;SDS011;15317;50.360;8.726;2024-01-30T05:26:22;26.90;;;24.07;;
27983;SDS011;15317;50.360;8.726;2024-01-30T05:31:25;25.90;;;23.03;;
27983;SDS011;15317;50.360;8.726;2024-01-30T05:36:29;26.83;;;23.93;;
27983;SDS011;15317;50.360;8.726;2024-01-30T05:41:33;26.43;;;23.63;;
27983;SDS011;15317;50.360;8.726;2024-01-30T05:46:36;25.77;;;23.03;;
27983;SDS011;15317;50.360;8.726;2024-01-30T05:51:40;25.93;;;23.10;;
27983;SDS011;15317;50.360;8.726;2024-01-30T05:56:44;28.63;;;25.67;;
27983;SDS011;15317;50.360;8.726;2024-01-30T06:01:48;27.80;;;24.80;;
27983;SDS011;15317;50.360;8.726;2024-01-30T06:06:51;29.13;;;26.03;;
27983;SDS011;15317;50.360;8.726;2024-01-30T06:11:56;30.57;;;27.27;;
27983;SDS011;15317;50.360;8.726;2024-01-30T06:16:59;30.60;;;27.37;;
27983;SDS011;15317;50.360;8.726;2024-01-30T06:22:03;35.03;;;29.70;;
27983;SDS011;15317;50.360;8.726;2024-01-30T06:27:07;32.03;;;28.03;;
27983;SDS011;15317;50.360;8.726;2024-01-30T06:32:11;31.33;;;27.17;;
27983;SDS011;15317;50.360;8.726;2024-01-30T06:37:14;29.87;;;26.70;;
27983;SDS011;15317;50.360;8.726;2024-01-30T06:42:18;32.70;;;28.73;;
27983;SDS011;15317;50.360;8.726;2024-01-30T06:47:22;31.20;;;28.00;;
27983;SDS011;15317;50.360;8.726;2024-01-30T06:52:25;30.13;;;27.03;;
27983;SDS011;15317;50.360;8.726;2024-01-30T06:57:30;30.17;;;27.03;;
27983;SDS011;15317;50.360;8.726;2024-01-30T07:02:33;31.30;;;27.90;;
27983;SDS011;15317;50.360;8.726;2024-01-30T07:07:36;30.83;;;27.53;;
27983;SDS011;15317;50.360;8.726;2024-01-30T07:12:41;29.83;;;26.63;;
27983;SDS011;15317;50.360;8.726;2024-01-30T07:17:44;28.77;;;24.80;;
27983;SDS011;15317;50.360;8.726;2024-01-30T07:22:47;30.87;;;27.60;;
27983;SDS011;15317;50.360;8.726;2024-01-30T07:27:52;32.20;;;28.70;;
27983;SDS011;15317;50.360;8.726;2024-01-30T07:32:55;31.17;;;27.87;;
27983;SDS011;15317;50.360;8.726;2024-01-30T07:37:58;32.53;;;29.03;;
27983;SDS011;15317;50.360;8.726;2024-01-30T07:43:03;33.83;;;28.13;;
27983;SDS011;15317;50.360;8.726;2024-01-30T07:48:06;32.57;;;29.10;;
27983;SDS011;15317;50.360;8.726;2024-01-30T07:53:10;32.63;;;28.90;;
27983;SDS011;15317;50.360;8.726;2024-01-30T07:58:14;32.03;;;28.63;;
27983;SDS011;15317;50.360;8.726;2024-01-30T08:03:17;31.03;;;27.87;;
27983;SDS011;15317;50.360;8.726;2024-01-30T08:08:21;32.13;;;28.73;;
27983;SDS011;15317;50.360;8.726;2024-01-30T08:13:25;34.20;;;29.27;;
27983;SDS011;15317;50.360;8.726;2024-01-30T08:18:28;32.80;;;29.23;;
27983;SDS011;15317;50.360;8.726;2024-01-30T08:23:31;34.00;;;30.37;;
27983;SDS011;15317;50.360;8.726;2024-01-30T08:28:36;34.60;;;30.90;;
27983;SDS011;15317;50.360;8.726;2024-01-30T08:33:39;33.77;;;29.30;;
27983;SDS011;15317;50.360;8.726;2024-01-30T08:38:44;32.60;;;29.33;;
27983;SDS011;15317;50.360;8.726;2024-01-30T08:43:49;31.97;;;28.60;;
27983;SDS011;15317;50.360;8.726;2024-01-30T08:48:52;32.77;;;29.47;;
27983;SDS011;15317;50.360;8.726;2024-01-30T08:53:55;32.30;;;29.03;;
27983;SDS011;15317;50.360;8.726;2024-01-30T08:59:00;32.60;;;29.23;;
27983;SDS011;15317;50.360;8.726;2024-01-30T09:04:03;31.40;;;28.17;;
27983;SDS011;15317;50.360;8.726;2024-01-30T09:09:07;30.47;;;27.40;;
27983;SDS011;15317;50.360;8.726;2024-01-30T09:14:12;31.13;;;28.03;;
27983;SDS011;15317;50.360;8.726;2024-01-30T09:19:15;30.00;;;26.90;;
27983;SDS011;15317;50.360;8.726;2024-01-30T09:24:19;31.27;;;28.07;;
27983;SDS011;15317;50.360;8.726;2024-01-30T09:29:23;32.07;;;28.57;;
27983;SDS011;15317;50.360;8.726;2024-01-30T09:34:27;32.07;;;28.77;;
27983;SDS011;15317;50.360;8.726;2024-01-30T09:39:30;31.67;;;28.47;;
27983;SDS011;15317;50.360;8.726;2024-01-30T09:44:34;32.30;;;29.20;;
27983;SDS011;15317;50.360;8.726;2024-01-30T09:49:38;31.47;;;28.37;;
27983;SDS011;15317;50.360;8.726;2024-01-30T09:54:45;32.67;;;29.40;;
27983;SDS011;15317;50.360;8.726;2024-01-30T09:59:49;33.83;;;30.53;;
27983;SDS011;15317;50.360;8.726;2024-01-30T10:04:56;35.43;;;31.60;;
27983;SDS011;15317;50.360;8.726;2024-01-30T10:10:00;34.40;;;31.00;;
27983;SDS011;15317;50.360;8.726;2024-01-30T10:15:06;35.37;;;31.83;;
27983;SDS011;15317;50.360;8.726;2024-01-30T10:20:10;34.53;;;31.13;;
27983;SDS011;15317;50.360;8.726;2024-01-30T10:25:15;34.30;;;31.00;;
27983;SDS011;15317;50.360;8.726;2024-01-30T10:30:20;33.67;;;30.33;;
27983;SDS011;15317;50.360;8.726;2024-01-30T10:35:23;34.30;;;30.90;;
27983;SDS011;15317;50.360;8.726;2024-01-30T10:40:27;35.47;;;31.50;;
27983;SDS011;15317;50.360;8.726;2024-01-30T10:45:32;33.30;;;30.00;;
27983;SDS011;15317;50.360;8.726;2024-01-30T10:50:38;33.60;;;30.40;;
27983;SDS011;15317;50.360;8.726;2024-01-30T10:55:54;33.00;;;29.57;;
27983;SDS011;15317;50.360;8.726;2024-01-30T11:00:59;32.73;;;29.50;;
27983;SDS011;15317;50.360;8.726;2024-01-30T11:06:04;31.77;;;28.67;;
27983;SDS011;15317;50.360;8.726;2024-01-30T11:11:08;33.03;;;29.83;;
27983;SDS011;15317;50.360;8.726;2024-01-30T11:16:17;32.00;;;28.73;;
27983;SDS011;15317;50.360;8.726;2024-01-30T11:21:20;33.50;;;30.30;;
27983;SDS011;15317;50.360;8.726;2024-01-30T11:26:23;31.27;;;28.13;;
27983;SDS011;15317;50.360;8.726;2024-01-30T11:31:31;32.63;;;29.63;;
27983;SDS011;15317;50.360;8.726;2024-01-30T11:36:35;32.03;;;29.13;;
27983;SDS011;15317;50.360;8.726;2024-01-30T11:41:39;33.33;;;29.77;;
27983;SDS011;15317;50.360;8.726;2024-01-30T11:46:45;32.07;;;29.03;;
27983;SDS011;15317;50.360;8.726;2024-01-30T11:51:48;32.73;;;29.30;;
27983;SDS011;15317;50.360;8.726;2024-01-30T11:56:52;30.17;;;27.27;;
27983;SDS011;15317;50.360;8.726;2024-01-30T12:01:56;29.67;;;26.87;;
27983;SDS011;15317;50.360;8.726;2024-01-30T12:07:00;29.80;;;27.07;;
27983;SDS011;15317;50.360;8.726;2024-01-30T12:12:06;29.97;;;27.13;;
27983;SDS011;15317;50.360;8.726;2024-01-30T12:17:23;32.57;;;29.27;;
27983;SDS011;15317;50.360;8.726;2024-01-30T12:22:29;27.13;;;24.63;;
27983;SDS011;15317;50.360;8.726;2024-01-30T12:27:32;28.43;;;25.73;;
27983;SDS011;15317;50.360;8.726;2024-01-30T12:32:38;27.93;;;25.23;;
27983;SDS011;15317;50.360;8.726;2024-01-30T12:37:44;27.03;;;24.27;;
27983;SDS011;15317;50.360;8.726;2024-01-30T12:42:48;28.57;;;25.93;;
27983;SDS011;15317;50.360;8.726;2024-01-30T12:47:53;28.60;;;25.80;;
27983;SDS011;15317;50.360;8.726;2024-01-30T12:52:57;27.80;;;25.23;;
27983;SDS011;15317;50.360;8.726;2024-01-30T12:58:00;28.13;;;25.47;;
27983;SDS011;15317;50.360;8.726;2024-01-30T13:03:06;28.87;;;26.17;;
27983;SDS011;15317;50.360;8.726;2024-01-30T13:08:10;28.93;;;25.80;;
27983;SDS011;15317;50.360;8.726;2024-01-30T13:13:13;29.43;;;26.73;;
27983;SDS011;15317;50.360;8.726;2024-01-30T13:18:22;28.47;;;25.83;;
27983;SDS011;15317;50.360;8.726;2024-01-30T13:23:26;28.70;;;25.83;;
27983;SDS011;15317;50.360;8.726;2024-01-30T13:28:29;27.33;;;24.73;;
27983;SDS011;15317;50.360;8.726;2024-01-30T13:33:33;27.73;;;25.13;;
27983;SDS011;15317;50.360;8.726;2024-01-30T13:38:37;26.60;;;24.20;;
27983;SDS011;15317;50.360;8.726;2024-01-30T13:43:41;26.47;;;24.00;;
27983;SDS011;15317;50.360;8.726;2024-01-30T13:48:45;25.90;;;23.50;;
27983;SDS011;15317;50.360;8.726;2024-01-30T13:53:49;26.13;;;23.63;;
27983;SDS011;15317;50.360;8.726;2024-01-30T13:58:52;25.10;;;22.73;;
27983;SDS011;15317;50.360;8.726;2024-01-30T14:03:58;25.10;;;22.77;;
27983;SDS011;15317;50.360;8.726;2024-01-30T14:09:02;25.30;;;22.77;;
27983;SDS011;15317;50.360;8.726;2024-01-30T14:14:09;25.87;;;23.27;;
27983;SDS011;15317;50.360;8.726;2024-01-30T14:19:14;24.93;;;22.57;;
27983;SDS011;15317;50.360;8.726;2024-01-30T14:24:17;25.97;;;23.27;;
27983;SDS011;15317;50.360;8.726;2024-01-30T14:29:20;24.80;;;22.60;;
27983;SDS011;15317;50.360;8.726;2024-01-30T14:34:25;24.17;;;22.07;;
27983;SDS011;15317;50.360;8.726;2024-01-30T14:39:29;24.27;;;21.97;;
27983;SDS011;15317;50.360;8.726;2024-01-30T14:44:32;24.67;;;22.10;;
27983;SDS011;15317;50.360;8.726;2024-01-30T14:49:36;25.33;;;23.00;;
27983;SDS011;15317;50.360;8.726;2024-01-30T14:54:39;24.60;;;22.27;;
27983;SDS011;15317;50.360;8.726;2024-01-30T14:59:43;24.77;;;22.23;;
27983;SDS011;15317;50.360;8.726;2024-01-30T15:04:47;25.37;;;22.93;;
27983;SDS011;15317;50.360;8.726;2024-01-30T15:09:51;26.80;;;24.00;;
27983;SDS011;15317;50.360;8.726;2024-01-30T15:14:54;24.30;;;22.10;;
27983;SDS011;15317;50.360;8.726;2024-01-30T15:19:58;24.40;;;22.20;;
27983;SDS011;15317;50.360;8.726;2024-01-30T15:25:02;24.90;;;22.40;;
27983;SDS011;15317;50.360;8.726;2024-01-30T15:30:06;25.07;;;22.87;;
27983;SDS011;15317;50.360;8.726;2024-01-30T15:35:11;25.07;;;22.70;;
27983;SDS011;15317;50.360;8.726;2024-01-30T15:40:15;24.77;;;22.37;;
27983;SDS011;15317;50.360;8.726;2024-01-30T15:45:18;25.67;;;23.17;;
27983;SDS011;15317;50.360;8.726;2024-01-30T15:50:23;23.20;;;21.03;;
27983;SDS011;15317;50.360;8.726;2024-01-30T15:55:26;25.93;;;23.27;;
27983;SDS011;15317;50.360;8.726;2024-01-30T16:00:29;25.23;;;22.93;;
27983;SDS011;15317;50.360;8.726;2024-01-30T16:05:34;24.13;;;21.83;;
27983;SDS011;15317;50.360;8.726;2024-01-30T16:10:37;25.07;;;22.53;;
27983;SDS011;15317;50.360;8.726;2024-01-30T16:15:40;25.47;;;22.97;;
27983;SDS011;15317;50.360;8.726;2024-01-30T16:20:46;26.23;;;23.63;;
27983;SDS011;15317;50.360;8.726;2024-01-30T16:25:49;26.27;;;23.87;;
27983;SDS011;15317;50.360;8.726;2024-01-30T16:30:53;27.00;;;24.40;;
27983;SDS011;15317;50.360;8.726;2024-01-30T16:35:57;26.60;;;24.20;;
27983;SDS011;15317;50.360;8.726;2024-01-30T16:41:00;25.57;;;23.17;;
27983;SDS011;15317;50.360;8.726;2024-01-30T16:46:03;26.40;;;23.83;;
27983;SDS011;15317;50.360;8.726;2024-01-30T16:51:08;25.93;;;23.37;;
27983;SDS011;15317;50.360;8.726;2024-01-30T16:56:11;25.47;;;22.97;;
27983;SDS011;15317;50.360;8.726;2024-01-30T17:01:14;26.97;;;24.47;;
27983;SDS011;15317;50.360;8.726;2024-01-30T17:06:19;27.37;;;24.70;;
27983;SDS011;15317;50.360;8.726;2024-01-30T17:11:23;27.93;;;25.13;;
27983;SDS011;15317;50.360;8.726;2024-01-30T17:16:26;27.90;;;25.10;;
27983;SDS011;15317;50.360;8.726;2024-01-30T17:21:31;27.60;;;25.03;;
27983;SDS011;15317;50.360;8.726;2024-01-30T17:26:36;29.03;;;26.13;;
27983;SDS011;15317;50.360;8.726;2024-01-30T17:31:45;28.60;;;25.90;;
27983;SDS011;15317;50.360;8.726;2024-01-30T17:36:51;28.67;;;25.83;;
27983;SDS011;15317;50.360;8.726;2024-01-30T17:41:54;28.07;;;25.53;;
27983;SDS011;15317;50.360;8.726;2024-01-30T17:46:57;28.40;;;25.60;;
27983;SDS011;15317;50.360;8.726;2024-01-30T17:52:02;29.20;;;26.40;;
27983;SDS011;15317;50.360;8.726;2024-01-30T17:57:06;29.77;;;26.87;;
27983;SDS011;15317;50.360;8.726;2024-01-30T18:02:09;30.73;;;27.83;;
27983;SDS011;15317;50.360;8.726;2024-01-30T18:07:15;29.70;;;26.87;;
27983;SDS011;15317;50.360;8.726;2024-01-30T18:12:18;29.97;;;27.00;;
27983;SDS011;15317;50.360;8.726;2024-01-30T18:17:21;31.53;;;28.50;;
27983;SDS011;15317;50.360;8.726;2024-01-30T18:22:26;30.47;;;27.47;;
27983;SDS011;15317;50.360;8.726;2024-01-30T18:27:29;28.73;;;25.83;;
27983;SDS011;15317;50.360;8.726;2024-01-30T18:32:32;31.47;;;28.47;;
27983;SDS011;15317;50.360;8.726;2024-01-30T18:37:37;29.37;;;26.47;;
27983;SDS011;15317;50.360;8.726;2024-01-30T18:42:40;29.43;;;26.47;;
27983;SDS011;15317;50.360;8.726;2024-01-30T18:47:43;28.63;;;25.73;;
27983;SDS011;15317;50.360;8.726;2024-01-30T18:52:50;29.43;;;26.63;;
27983;SDS011;15317;50.360;8.726;2024-01-30T18:57:53;32.00;;;28.77;;
27983;SDS011;15317;50.360;8.726;2024-01-30T19:02:57;28.43;;;25.73;;
27983;SDS011;15317;50.360;8.726;2024-01-30T19:08:01;30.43;;;27.57;;
27983;SDS011;15317;50.360;8.726;2024-01-30T19:13:04;30.93;;;27.87;;
27983;SDS011;15317;50.360;8.726;2024-01-30T19:18:08;31.17;;;27.93;;
27983;SDS011;15317;50.360;8.726;2024-01-30T19:23:15;31.87;;;28.80;;
27983;SDS011;15317;50.360;8.726;2024-01-30T19:28:19;31.67;;;28.40;;
27983;SDS011;15317;50.360;8.726;2024-01-30T19:33:22;33.17;;;30.00;;
27983;SDS011;15317;50.360;8.726;2024-01-30T19:38:27;33.17;;;29.93;;
27983;SDS011;15317;50.360;8.726;2024-01-30T19:43:30;32.77;;;29.47;;
27983;SDS011;15317;50.360;8.726;2024-01-30T19:48:33;33.13;;;29.93;;
27983;SDS011;15317;50.360;8.726;2024-01-30T19:53:37;32.80;;;29.47;;
27983;SDS011;15317;50.360;8.726;2024-01-30T19:58:41;32.07;;;28.97;;
27983;SDS011;15317;50.360;8.726;2024-01-30T20:03:44;33.10;;;29.77;;
27983;SDS011;15317;50.360;8.726;2024-01-30T20:08:48;33.43;;;30.13;;
27983;SDS011;15317;50.360;8.726;2024-01-30T20:13:51;32.57;;;29.37;;
27983;SDS011;15317;50.360;8.726;2024-01-30T20:18:54;32.47;;;29.47;;
27983;SDS011;15317;50.360;8.726;2024-01-30T20:23:59;30.60;;;27.60;;
27983;SDS011;15317;50.360;8.726;2024-01-30T20:29:03;31.50;;;28.43;;
27983;SDS011;15317;50.360;8.726;2024-01-30T20:34:06;30.60;;;27.57;;
27983;SDS011;15317;50.360;8.726;2024-01-30T20:39:11;28.47;;;25.67;;
27983;SDS011;15317;50.360;8.726;2024-01-30T20:44:15;30.37;;;27.40;;
27983;SDS011;15317;50.360;8.726;2024-01-30T20:49:19;31.33;;;28.33;;
27983;SDS011;15317;50.360;8.726;2024-01-30T20:54:24;35.03;;;31.60;;
27983;SDS011;15317;50.360;8.726;2024-01-30T20:59:27;34.27;;;30.77;;
27983;SDS011;15317;50.360;8.726;2024-01-30T21:04:30;33.50;;;30.10;;
27983;SDS011;15317;50.360;8.726;2024-01-30T21:09:35;32.93;;;29.63;;
27983;SDS011;15317;50.360;8.726;2024-01-30T21:14:38;31.90;;;28.77;;
27983;SDS011;15317;50.360;8.726;2024-01-30T21:19:42;30.20;;;27.20;;
27983;SDS011;15317;50.360;8.726;2024-01-30T21:24:46;31.53;;;28.43;;
27983;SDS011;15317;50.360;8.726;2024-01-30T21:29:49;32.40;;;29.10;;
27983;SDS011;15317;50.360;8.726;2024-01-30T21:34:52;31.00;;;27.97;;
27983;SDS011;15317;50.360;8.726;2024-01-30T21:39:57;30.67;;;27.57;;
27983;SDS011;15317;50.360;8.726;2024-01-30T21:45:00;29.77;;;26.87;;
27983;SDS011;15317;50.360;8.726;2024-01-30T21:50:04;33.10;;;29.90;;
27983;SDS011;15317;50.360;8.726;2024-01-30T21:55:09;30.43;;;27.67;;
27983;SDS011;15317;50.360;8.726;2024-01-30T22:00:13;34.57;;;30.83;;
27983;SDS011;15317;50.360;8.726;2024-01-30T22:05:17;33.23;;;29.93;;
27983;SDS011;15317;50.360;8.726;2024-01-30T22:10:22;34.73;;;31.43;;
27983;SDS011;15317;50.360;8.726;2024-01-30T22:15:25;33.37;;;30.17;;
27983;SDS011;15317;50.360;8.726;2024-01-30T22:20:30;34.33;;;31.00;;
27983;SDS011;15317;50.360;8.726;2024-01-30T22:25:35;31.63;;;28.57;;
27983;SDS011;15317;50.360;8.726;2024-01-30T22:30:39;29.60;;;26.50;;
27983;SDS011;15317;50.360;8.726;2024-01-30T22:35:42;27.87;;;25.20;;
27983;SDS011;15317;50.360;8.726;2024-01-30T22:40:46;25.33;;;22.80;;
27983;SDS011;15317;50.360;8.726;2024-01-30T22:45:49;23.30;;;20.87;;
27983;SDS011;15317;50.360;8.726;2024-01-30T22:50:53;20.13;;;18.03;;
27983;SDS011;15317;50.360;8.726;2024-01-30T22:55:57;18.27;;;16.57;;
27983;SDS011;15317;50.360;8.726;2024-01-30T23:01:00;15.00;;;12.40;;
27983;SDS011;15317;50.360;8.726;2024-01-30T23:06:03;16.60;;;11.47;;
27983;SDS011;15317;50.360;8.726;2024-01-30T23:11:11;12.07;;;10.43;;
27983;SDS011;15317;50.360;8.726;2024-01-30T23:16:14;10.73;;;9.63;;
27983;SDS011;15317;50.360;8.726;2024-01-30T23:21:18;11.13;;;8.97;;
27983;SDS011;15317;50.360;8.726;2024-01-30T23:26:22;11.27;;;9.20;;
27983;SDS011;15317;50.360;8.726;2024-01-30T23:31:26;11.63;;;9.40;;
27983;SDS011;15317;50.360;8.726;2024-01-30T23:36:29;11.20;;;8.60;;
27983;SDS011;15317;50.360;8.726;2024-01-30T23:41:35;10.03;;;9.03;;
27983;SDS011;15317;50.360;8.726;2024-01-30T23:46:38;10.67;;;9.53;;
27983;SDS011;15317;50.360;8.726;2024-01-30T23:51:42;10.50;;;9.47;;
27983;SDS011;15317;50.360;8.726;2024-01-30T23:56:46;10.70;;;9.53;;
